Time;durP1;ratioP1;P1;durP2;ratioP2;P2;SDS_P1;SDS_P2;PMS_P1;PMS_P2;Temp;Humidity;BMP_temperature;BMP_pressure;BME280_temperature;BME280_humidity;BME280_pressure;Samples;Min_cycle;Max_cycle;Signal;HPM_P1;HPM_P2
2022/07/04 00:02:01;;;;;;;2.77;1.17;;;24.10;61.80;;;;;;7381300;19;20454;-76
2022/07/04 00:04:33;;;;;;;2.30;1.70;;;24.00;61.70;;;;;;7401407;19;20400;-77
2022/07/04 00:07:03;;;;;;;4.33;1.87;;;24.10;62.10;;;;;;7402943;19;20428;-75
2022/07/04 00:09:32;;;;;;;1.67;1.57;;;24.00;61.60;;;;;;7405698;19;20408;-77
2022/07/04 00:12:05;;;;;;;2.10;1.70;;;24.00;62.00;;;;;;7398754;19;21756;-76
2022/07/04 00:14:34;;;;;;;1.87;1.43;;;24.10;62.60;;;;;;7404661;19;20392;-75
2022/07/04 00:17:06;;;;;;;2.90;1.50;;;24.10;61.70;;;;;;7400221;19;21487;-75
2022/07/04 00:19:36;;;;;;;3.47;1.80;;;24.10;61.70;;;;;;7399146;19;20431;-77
2022/07/04 00:22:08;;;;;;;3.60;1.80;;;24.10;62.20;;;;;;7370890;19;20432;-77
2022/07/04 00:24:38;;;;;;;2.10;1.40;;;24.10;61.70;;;;;;7374414;19;20417;-78
2022/07/04 00:27:10;;;;;;;1.63;1.53;;;24.00;61.60;;;;;;7375801;19;20408;-79
2022/07/04 00:29:39;;;;;;;9.43;1.97;;;24.00;61.50;;;;;;7375384;19;20415;-78
2022/07/04 00:32:10;;;;;;;2.83;1.40;;;23.90;62.00;;;;;;7372478;19;21138;-78
2022/07/04 00:34:39;;;;;;;5.23;2.90;;;23.80;62.00;;;;;;7372415;19;20416;-78
2022/07/04 00:37:09;;;;;;;2.00;1.50;;;23.80;62.40;;;;;;7372290;19;20457;-78
2022/07/04 00:39:38;;;;;;;2.17;1.50;;;23.70;62.40;;;;;;7371446;19;20454;-78
2022/07/04 00:42:11;;;;;;;3.77;1.70;;;23.80;62.70;;;;;;7368873;19;20511;-78
2022/07/04 00:44:41;;;;;;;1.60;1.40;;;23.70;62.60;;;;;;7373920;19;20520;-79
2022/07/04 00:47:11;;;;;;;2.97;1.57;;;23.70;63.40;;;;;;7365239;19;20500;-78
2022/07/04 00:49:41;;;;;;;2.43;1.90;;;23.70;62.40;;;;;;7375361;19;20420;-79
2022/07/04 00:52:11;;;;;;;4.17;1.90;;;23.60;62.20;;;;;;7371038;19;21234;-78
2022/07/04 00:54:43;;;;;;;3.97;1.80;;;23.60;63.50;;;;;;7369259;19;20479;-79
2022/07/04 00:57:15;;;;;;;1.83;1.73;;;23.60;62.40;;;;;;7366015;19;20470;-79
2022/07/04 00:59:46;;;;;;;1.50;1.30;;;23.40;62.80;;;;;;7365679;19;21228;-79
2022/07/04 01:02:16;;;;;;;3.43;1.50;;;23.40;63.00;;;;;;7364675;19;21338;-78
2022/07/04 01:04:48;;;;;;;3.23;1.60;;;23.50;63.00;;;;;;7372410;19;20956;-78
2022/07/04 01:07:17;;;;;;;3.67;1.63;;;23.50;62.70;;;;;;7369146;19;20416;-78
2022/07/04 01:09:47;;;;;;;4.17;1.87;;;23.40;63.00;;;;;;7363314;19;21049;-78
2022/07/04 01:12:31;;;;;;;2.10;1.60;;;23.50;63.00;;;;;;7365711;19;20420;-78
2022/07/04 01:15:00;;;;;;;1.40;1.30;;;23.50;62.70;;;;;;7352606;19;20408;-78
2022/07/04 01:17:30;;;;;;;2.40;2.10;;;23.50;62.90;;;;;;7362436;19;20533;-77
2022/07/04 01:19:59;;;;;;;2.70;1.70;;;23.60;62.60;;;;;;7352662;19;20432;-79
2022/07/04 01:22:32;;;;;;;2.33;1.80;;;23.50;62.80;;;;;;7360054;19;20454;-78
2022/07/04 01:25:03;;;;;;;2.60;1.80;;;23.50;62.90;;;;;;7362402;19;20411;-78
2022/07/04 01:27:32;;;;;;;4.27;1.93;;;23.30;63.30;;;;;;7363826;19;21452;-78
2022/07/04 01:30:02;;;;;;;4.90;1.70;;;23.30;63.60;;;;;;7357812;19;20419;-77
2022/07/04 01:32:31;;;;;;;2.80;1.80;;;23.30;64.20;;;;;;7365085;19;20896;-78
2022/07/04 01:35:04;;;;;;;2.00;1.80;;;23.20;63.60;;;;;;7369005;19;20405;-79
2022/07/04 01:37:38;;;;;;;2.30;1.60;;;23.20;63.80;;;;;;7366052;19;20420;-78
2022/07/04 01:40:09;;;;;;;2.60;1.60;;;23.30;63.80;;;;;;7362040;19;20529;-78
2022/07/04 01:42:41;;;;;;;1.73;1.60;;;23.30;63.50;;;;;;7369182;19;20408;-78
2022/07/04 01:45:13;;;;;;;2.20;1.50;;;23.30;63.90;;;;;;7362182;19;20427;-77
2022/07/04 01:47:43;;;;;;;2.13;1.60;;;23.30;63.60;;;;;;7365037;19;21117;-78
2022/07/04 01:50:14;;;;;;;2.27;1.60;;;23.30;63.70;;;;;;7365162;19;20405;-78
2022/07/04 01:52:46;;;;;;;3.37;1.63;;;23.30;63.40;;;;;;7368302;19;20408;-77
2022/07/04 01:55:19;;;;;;;2.80;1.77;;;23.40;63.30;;;;;;7362543;19;20819;-80
2022/07/04 01:57:48;;;;;;;2.13;1.73;;;23.40;63.10;;;;;;7348180;19;20439;-77
2022/07/04 02:03:02;;;;;;;2.23;1.60;;;23.30;63.30;;;;;;7367895;19;20964;-79
2022/07/04 02:05:31;;;;;;;2.30;1.37;;;23.20;63.40;;;;;;7363203;19;23239;-78
2022/07/04 02:08:06;;;;;;;1.70;1.40;;;23.10;64.40;;;;;;7367298;19;20423;-79
2022/07/04 02:10:37;;;;;;;1.67;1.57;;;23.00;64.80;;;;;;7372444;19;20416;-78
2022/07/04 02:13:05;;;;;;;3.47;1.57;;;23.20;64.30;;;;;;7373227;19;20419;-78
2022/07/04 02:15:38;;;;;;;2.53;1.40;;;23.00;64.60;;;;;;7365777;19;20400;-79
2022/07/04 02:18:09;;;;;;;3.37;1.60;;;23.00;65.00;;;;;;7366089;19;20539;-79
2022/07/04 02:20:40;;;;;;;1.70;1.60;;;23.00;65.00;;;;;;7366487;19;20443;-79
2022/07/04 02:23:12;;;;;;;1.90;1.80;;;22.90;64.90;;;;;;7369848;19;20495;-78
2022/07/04 02:25:41;;;;;;;2.67;1.73;;;23.00;65.00;;;;;;7369261;19;20425;-77
2022/07/04 02:28:10;;;;;;;2.67;1.90;;;23.00;65.00;;;;;;7366594;19;21346;-77
2022/07/04 02:30:40;;;;;;;2.50;1.57;;;23.00;64.70;;;;;;7368922;19;20421;-79
2022/07/04 02:33:09;;;;;;;3.67;2.40;;;22.90;64.90;;;;;;7373438;19;20404;-78
2022/07/04 02:35:39;;;;;;;1.60;1.50;;;22.80;65.40;;;;;;7362807;19;20418;-77
2022/07/04 02:38:11;;;;;;;2.53;1.60;;;22.80;65.80;;;;;;7361607;19;21117;-79
2022/07/04 02:40:40;;;;;;;2.20;2.00;;;22.80;65.70;;;;;;7376422;19;20412;-79
2022/07/04 02:43:10;;;;;;;2.93;1.57;;;22.90;65.20;;;;;;7369346;19;20407;-79
2022/07/04 02:45:39;;;;;;;3.90;1.50;;;22.90;65.00;;;;;;7359297;19;20536;-79
2022/07/04 02:48:09;;;;;;;2.10;1.70;;;22.90;64.70;;;;;;7364215;19;20409;-78
2022/07/04 02:50:38;;;;;;;2.33;1.60;;;23.00;64.80;;;;;;7374861;19;20494;-79
2022/07/04 02:53:11;;;;;;;2.83;1.90;;;22.80;64.90;;;;;;7369064;19;20520;-79
2022/07/04 02:55:40;;;;;;;1.67;1.57;;;22.70;65.40;;;;;;7367465;19;20446;-78
2022/07/04 02:58:12;;;;;;;3.00;1.80;;;22.70;65.60;;;;;;7363685;19;20532;-78
2022/07/04 03:00:41;;;;;;;2.37;1.77;;;22.70;65.80;;;;;;7370120;19;20396;-78
2022/07/04 03:03:11;;;;;;;2.53;1.53;;;22.70;65.20;;;;;;7370576;19;20392;-78
2022/07/04 03:05:40;;;;;;;2.47;1.80;;;22.60;65.70;;;;;;7365374;19;20443;-78
2022/07/04 03:08:12;;;;;;;2.07;1.67;;;22.50;66.20;;;;;;7369031;19;21000;-78
2022/07/04 03:10:42;;;;;;;2.30;1.40;;;22.50;66.60;;;;;;7372240;19;20467;-78
2022/07/04 03:13:11;;;;;;;2.53;1.40;;;22.50;66.70;;;;;;7370120;19;20420;-78
2022/07/04 03:15:41;;;;;;;3.10;2.07;;;22.40;66.70;;;;;;7363963;19;20421;-79
2022/07/04 03:18:10;;;;;;;2.47;1.50;;;22.30;67.00;;;;;;7366553;19;20446;-78
2022/07/04 03:20:40;;;;;;;2.87;1.90;;;22.30;68.10;;;;;;7375628;19;20416;-76
2022/07/04 03:23:12;;;;;;;3.40;1.80;;;22.20;67.50;;;;;;7388029;19;20432;-76
2022/07/04 03:25:44;;;;;;;2.90;1.87;;;22.30;68.00;;;;;;7388579;19;20372;-72
2022/07/04 03:28:14;;;;;;;5.13;1.90;;;22.30;67.70;;;;;;7393833;19;20438;-78
2022/07/04 03:30:43;;;;;;;2.00;1.60;;;22.20;68.20;;;;;;7384905;19;20404;-78
2022/07/04 03:33:13;;;;;;;2.70;1.50;;;22.20;68.20;;;;;;7386887;19;20400;-77
2022/07/04 03:35:43;;;;;;;2.50;2.30;;;22.20;68.20;;;;;;7391799;19;21245;-76
2022/07/04 03:38:17;;;;;;;6.83;1.93;;;22.10;68.50;;;;;;7398014;19;20416;-77
2022/07/04 03:40:47;;;;;;;3.43;1.60;;;22.10;68.50;;;;;;7395984;19;20395;-77
2022/07/04 03:43:16;;;;;;;2.20;2.00;;;22.20;68.60;;;;;;7402343;19;20401;-77
2022/07/04 03:45:46;;;;;;;1.90;1.80;;;22.20;68.50;;;;;;7406671;19;20448;-77
2022/07/04 03:48:15;;;;;;;3.03;1.90;;;22.10;68.50;;;;;;7405536;19;20397;-77
2022/07/04 03:50:44;;;;;;;3.67;1.77;;;22.00;68.50;;;;;;7405510;19;20430;-77
2022/07/04 03:53:17;;;;;;;2.77;1.73;;;22.00;70.00;;;;;;7406952;19;20388;-77
2022/07/04 03:55:46;;;;;;;2.40;1.97;;;22.00;69.00;;;;;;7402961;19;20396;-77
2022/07/04 03:58:16;;;;;;;2.13;1.80;;;22.10;69.00;;;;;;7406528;19;20432;-77
2022/07/04 04:00:45;;;;;;;3.00;1.77;;;22.10;69.00;;;;;;7383147;19;20759;-78
2022/07/04 04:05:56;;;;;;;4.13;1.50;;;22.20;68.50;;;;;;7377524;19;20421;-78
2022/07/04 04:08:29;;;;;;;2.33;2.13;;;22.30;68.50;;;;;;7375263;19;20426;-78
2022/07/04 04:10:58;;;;;;;2.43;1.60;;;22.30;67.70;;;;;;7374455;19;20399;-78
2022/07/04 04:13:27;;;;;;;2.90;1.73;;;22.30;68.00;;;;;;7371122;19;20447;-77
2022/07/04 04:15:57;;;;;;;2.47;1.70;;;22.40;68.30;;;;;;7368769;19;20947;-78
2022/07/04 04:18:26;;;;;;;3.77;1.73;;;22.30;67.40;;;;;;7363281;19;21403;-76
2022/07/04 04:20:56;;;;;;;2.47;2.23;;;22.30;67.80;;;;;;7357352;19;21310;-78
2022/07/04 04:23:28;;;;;;;3.90;2.10;;;22.20;68.00;;;;;;7362028;19;20431;-78
2022/07/04 04:26:00;;;;;;;4.23;2.10;;;21.80;68.20;;;;;;7361370;19;20399;-78
2022/07/04 04:28:29;;;;;;;3.30;1.67;;;22.00;69.10;;;;;;7370051;19;21343;-78
2022/07/04 04:30:59;;;;;;;2.93;1.87;;;22.00;69.30;;;;;;7356445;19;20436;-81
2022/07/04 04:33:31;;;;;;;3.60;2.53;;;22.20;68.80;;;;;;7349745;19;20393;-77
2022/07/04 04:36:00;;;;;;;2.10;1.60;;;22.20;67.80;;;;;;7362197;19;20419;-77
2022/07/04 04:38:32;;;;;;;2.70;1.73;;;22.30;67.40;;;;;;7373848;19;21518;-79
2022/07/04 04:41:02;;;;;;;4.57;2.33;;;22.20;67.70;;;;;;7373015;19;20525;-78
2022/07/04 04:43:31;;;;;;;10.30;5.40;;;22.30;67.40;;;;;;7371684;19;20392;-78
2022/07/04 04:46:01;;;;;;;16.93;11.77;;;22.30;67.40;;;;;;7367151;19;20403;-78
2022/07/04 04:48:30;;;;;;;4.37;1.93;;;22.30;67.70;;;;;;7370667;19;20396;-78
2022/07/04 04:50:59;;;;;;;3.60;2.87;;;22.30;67.00;;;;;;7369855;19;20403;-78
2022/07/04 04:53:32;;;;;;;3.50;2.30;;;22.20;67.50;;;;;;7374113;19;20783;-78
2022/07/04 04:56:01;;;;;;;7.33;4.10;;;22.30;67.70;;;;;;7368900;19;20396;-78
2022/07/04 04:58:33;;;;;;;6.40;4.27;;;22.30;66.70;;;;;;7367910;19;20469;-78
2022/07/04 05:01:03;;;;;;;11.13;7.93;;;22.30;67.20;;;;;;7364317;19;20396;-77
2022/07/04 05:03:35;;;;;;;16.07;10.03;;;22.40;66.90;;;;;;7374259;19;20400;-79
2022/07/04 05:06:04;;;;;;;6.93;5.20;;;22.40;65.70;;;;;;7369185;19;21170;-78
2022/07/04 05:08:38;;;;;;;3.87;3.37;;;22.40;65.20;;;;;;7377007;19;20372;-77
2022/07/04 05:11:08;;;;;;;5.20;4.70;;;22.50;65.40;;;;;;7366949;19;20865;-78
2022/07/04 05:13:39;;;;;;;2.20;2.03;;;22.60;65.00;;;;;;7367691;19;20372;-77
2022/07/04 05:16:09;;;;;;;2.03;1.60;;;22.50;65.70;;;;;;7370403;19;20419;-78
2022/07/04 05:18:38;;;;;;;2.00;1.50;;;22.40;65.50;;;;;;7370349;19;20411;-78
2022/07/04 05:21:08;;;;;;;5.30;4.40;;;22.40;65.70;;;;;;7367060;19;20380;-79
2022/07/04 05:23:40;;;;;;;7.70;5.30;;;22.30;67.00;;;;;;7370081;19;20360;-79
2022/07/04 05:26:09;;;;;;;16.10;11.00;;;22.40;66.80;;;;;;7370324;19;20400;-78
2022/07/04 05:28:39;;;;;;;3.57;3.20;;;22.50;66.60;;;;;;7371533;19;20360;-76
2022/07/04 05:31:08;;;;;;;2.50;1.83;;;22.50;66.70;;;;;;7370987;19;20424;-78
2022/07/04 05:33:38;;;;;;;3.30;2.50;;;22.40;66.90;;;;;;7367805;19;20409;-78
2022/07/04 05:36:11;;;;;;;3.60;2.20;;;22.30;68.10;;;;;;7372813;19;20409;-77
2022/07/04 05:38:43;;;;;;;5.50;4.30;;;22.40;67.60;;;;;;7373847;19;21234;-78
2022/07/04 05:41:15;;;;;;;8.97;5.90;;;22.60;67.40;;;;;;7369954;19;20392;-78
2022/07/04 05:43:47;;;;;;;11.50;5.50;;;22.60;67.10;;;;;;7378805;19;21052;-78
2022/07/04 05:46:16;;;;;;;5.87;3.57;;;22.60;66.20;;;;;;7375244;19;20958;-77
2022/07/04 05:48:46;;;;;;;3.67;2.33;;;22.70;65.10;;;;;;7379159;19;20436;-78
2022/07/04 05:51:15;;;;;;;2.47;1.93;;;22.90;64.70;;;;;;7379737;19;20906;-77
2022/07/04 05:53:47;;;;;;;3.43;2.20;;;23.00;63.60;;;;;;7375660;19;20408;-78
2022/07/04 05:56:17;;;;;;;2.30;2.10;;;23.10;63.10;;;;;;7376285;19;20460;-77
2022/07/04 05:58:46;;;;;;;3.20;2.90;;;23.30;62.70;;;;;;7344827;19;20408;-77
2022/07/04 06:01:16;;;;;;;3.70;2.00;;;23.50;62.20;;;;;;7375238;19;20436;-77
2022/07/04 06:03:45;;;;;;;2.20;2.00;;;23.60;61.30;;;;;;7372627;19;20404;-78
2022/07/04 06:06:15;;;;;;;2.13;1.90;;;23.70;60.70;;;;;;7371179;19;20356;-78
2022/07/04 06:08:47;;;;;;;1.90;1.73;;;23.80;59.80;;;;;;7377499;19;20503;-78
2022/07/04 06:11:17;;;;;;;3.93;2.20;;;23.90;60.20;;;;;;7378241;19;20480;-76
2022/07/04 06:13:47;;;;;;;2.27;1.70;;;23.80;60.30;;;;;;7378050;19;20554;-78
2022/07/04 06:16:16;;;;;;;3.53;2.10;;;23.90;59.90;;;;;;7373935;19;20451;-78
2022/07/04 06:18:46;;;;;;;6.93;2.47;;;23.80;60.90;;;;;;7377115;19;21050;-78
2022/07/04 06:21:16;;;;;;;3.47;2.50;;;23.80;59.60;;;;;;7377069;19;20851;-77
2022/07/04 06:23:48;;;;;;;2.53;1.77;;;23.80;59.60;;;;;;7368044;19;20396;-77
2022/07/04 06:26:18;;;;;;;2.33;1.60;;;23.90;59.90;;;;;;7387373;19;20411;-89
2022/07/04 06:28:49;;;;;;;3.43;1.73;;;23.70;59.60;;;;;;7400145;19;20887;-90
2022/07/04 06:31:21;;;;;;;1.63;1.50;;;23.80;60.50;;;;;;7387448;19;20415;-78
2022/07/04 06:36:35;;;;;;;3.53;1.67;;;24.10;59.70;;;;;;7388462;19;20416;-77
2022/07/04 06:39:07;;;;;;;2.93;1.70;;;24.00;59.60;;;;;;7389558;19;20415;-84
2022/07/04 06:41:37;;;;;;;3.87;1.63;;;23.90;61.00;;;;;;7389744;19;20400;-83
2022/07/04 06:44:09;;;;;;;3.40;1.83;;;24.10;59.30;;;;;;7390811;19;20504;-82
2022/07/04 06:46:38;;;;;;;2.73;1.87;;;23.90;58.80;;;;;;7390753;19;20420;-83
2022/07/04 06:49:11;;;;;;;9.63;1.83;;;24.00;59.10;;;;;;7391262;19;20423;-83
2022/07/04 06:51:40;;;;;;;4.43;1.73;;;24.20;58.80;;;;;;7392776;19;20439;-81
2022/07/04 06:54:15;;;;;;;2.20;1.63;;;24.20;58.80;;;;;;7384421;19;21074;-81
2022/07/04 06:56:45;;;;;;;2.83;1.57;;;24.10;59.20;;;;;;7386384;19;20428;-82
2022/07/04 06:59:14;;;;;;;3.23;1.63;;;24.30;59.10;;;;;;7388670;19;20393;-80
2022/07/04 07:01:44;;;;;;;3.77;2.07;;;24.40;58.30;;;;;;7384371;19;20405;-81
2022/07/04 07:04:13;;;;;;;2.57;1.57;;;24.50;58.20;;;;;;7383769;19;20420;-81
2022/07/04 07:06:45;;;;;;;2.30;1.47;;;24.50;58.40;;;;;;7385980;19;20409;-81
2022/07/04 07:09:17;;;;;;;2.87;2.30;;;24.80;58.10;;;;;;7398158;19;20412;-80
2022/07/04 07:11:46;;;;;;;3.00;1.80;;;24.80;58.00;;;;;;7411758;19;20410;-80
2022/07/04 07:14:16;;;;;;;3.47;1.80;;;24.70;58.40;;;;;;7415474;19;20457;-81
2022/07/04 07:16:45;;;;;;;3.77;1.83;;;24.80;58.50;;;;;;7418010;19;20419;-79
2022/07/04 07:19:14;;;;;;;3.00;2.20;;;25.10;57.30;;;;;;7411171;19;20456;-81
2022/07/04 07:21:44;;;;;;;2.87;2.40;;;25.30;56.50;;;;;;7408388;19;20412;-80
2022/07/04 07:24:16;;;;;;;4.13;2.60;;;25.30;56.80;;;;;;7409434;19;20423;-80
2022/07/04 07:26:45;;;;;;;2.33;1.90;;;25.30;56.30;;;;;;7413980;19;20396;-81
2022/07/04 07:29:15;;;;;;;2.00;1.57;;;25.20;56.70;;;;;;7423064;19;20451;-80
2022/07/04 07:31:44;;;;;;;4.73;2.20;;;25.30;56.80;;;;;;7401669;19;20412;-81
2022/07/04 07:34:16;;;;;;;2.50;1.97;;;25.50;56.70;;;;;;7397659;19;20376;-80
2022/07/04 07:36:46;;;;;;;2.57;1.90;;;25.50;55.50;;;;;;7403553;19;20420;-80
2022/07/04 07:39:18;;;;;;;3.20;2.23;;;25.60;56.00;;;;;;7404690;19;20428;-82
2022/07/04 07:41:47;;;;;;;3.20;1.97;;;25.60;55.80;;;;;;7403656;19;20403;-82
2022/07/04 07:44:21;;;;;;;5.80;1.97;;;25.60;56.20;;;;;;7385798;19;20416;-82
2022/07/04 07:46:50;;;;;;;3.30;2.23;;;25.60;56.00;;;;;;7384726;19;20424;-82
2022/07/04 07:49:23;;;;;;;2.83;1.90;;;25.60;56.60;;;;;;7389680;19;20409;-81
2022/07/04 07:51:52;;;;;;;3.00;1.93;;;25.80;56.00;;;;;;7393966;19;20424;-82
2022/07/04 07:54:24;;;;;;;2.40;1.60;;;25.80;55.70;;;;;;7384972;19;20404;-81
2022/07/04 07:56:54;;;;;;;2.60;1.70;;;25.80;56.00;;;;;;7385364;19;20708;-82
2022/07/04 07:59:26;;;;;;;3.67;1.83;;;26.00;55.20;;;;;;7381703;19;20426;-81
2022/07/04 08:01:55;;;;;;;4.90;1.80;;;25.90;55.40;;;;;;7379715;19;20412;-82
2022/07/04 08:04:37;;;;;;;2.20;1.50;;;26.00;55.50;;;;;;7378299;19;20423;-82
2022/07/04 08:07:08;;;;;;;4.03;1.90;;;26.10;55.10;;;;;;7378775;19;20364;-81
2022/07/04 08:09:41;;;;;;;4.63;1.70;;;26.00;55.00;;;;;;7376467;19;20513;-81
2022/07/04 08:12:13;;;;;;;3.30;1.87;;;25.90;55.40;;;;;;7381583;19;20403;-82
2022/07/04 08:14:42;;;;;;;6.57;1.87;;;25.90;55.70;;;;;;7378563;19;20396;-82
2022/07/04 08:17:12;;;;;;;4.07;1.87;;;25.60;56.70;;;;;;7375554;19;20476;-82
2022/07/04 08:19:44;;;;;;;2.77;2.10;;;25.70;56.30;;;;;;7382492;19;20432;-82
2022/07/04 08:22:14;;;;;;;6.20;2.17;;;25.50;56.20;;;;;;7364647;19;20455;-82
2022/07/04 08:24:47;;;;;;;8.73;2.00;;;25.60;55.60;;;;;;7375649;19;20400;-83
2022/07/04 08:27:17;;;;;;;6.57;2.17;;;25.80;55.80;;;;;;7376883;19;20768;-83
2022/07/04 08:29:46;;;;;;;3.13;1.77;;;25.80;55.70;;;;;;7377793;19;20425;-83
2022/07/04 08:32:16;;;;;;;4.23;1.80;;;26.00;56.10;;;;;;7378546;19;21149;-82
2022/07/04 08:34:46;;;;;;;2.10;1.63;;;26.00;55.10;;;;;;7380918;19;21066;-82
2022/07/04 08:37:16;;;;;;;2.30;1.80;;;25.70;55.70;;;;;;7381348;19;20500;-82
2022/07/04 08:39:48;;;;;;;4.80;2.00;;;25.70;56.30;;;;;;7382130;19;20404;-82
2022/07/04 08:42:20;;;;;;;2.17;1.60;;;25.70;56.10;;;;;;7382492;19;20420;-83
2022/07/04 08:44:51;;;;;;;3.90;2.13;;;25.70;56.40;;;;;;7379899;19;20408;-82
2022/07/04 08:47:24;;;;;;;2.50;1.50;;;25.80;56.00;;;;;;7381747;19;20438;-82
2022/07/04 08:50:01;;;;;;;4.90;2.00;;;25.80;55.80;;;;;;7377573;19;20408;-83
2022/07/04 08:52:38;;;;;;;3.80;1.50;;;26.10;55.70;;;;;;7379003;19;20412;-83
2022/07/04 09:00:38;;;;;;;3.93;1.60;;;26.60;54.30;;;;;;7379432;19;20485;-82
2022/07/04 09:03:08;;;;;;;2.93;1.90;;;26.70;54.30;;;;;;7378620;19;20400;-83
2022/07/04 09:05:40;;;;;;;3.13;1.70;;;26.80;53.90;;;;;;7375524;19;20466;-82
2022/07/04 09:08:12;;;;;;;2.27;2.07;;;26.80;53.50;;;;;;7378193;19;20431;-82
2022/07/04 09:10:44;;;;;;;8.73;2.40;;;26.80;53.50;;;;;;7384663;19;20581;-91
2022/07/04 09:13:17;;;;;;;5.00;2.27;;;26.60;53.70;;;;;;7392702;19;20404;-92
2022/07/04 09:15:48;;;;;;;5.73;2.53;;;26.80;53.30;;;;;;7394031;19;20423;-91
2022/07/04 09:18:26;;;;;;;2.70;2.17;;;26.90;52.80;;;;;;7399050;19;20427;-90
2022/07/04 09:20:56;;;;;;;4.47;2.40;;;26.80;53.60;;;;;;7400409;19;20407;-91
2022/07/04 09:23:28;;;;;;;4.33;2.17;;;26.90;53.50;;;;;;7398793;19;20407;-91
2022/07/04 09:26:14;;;;;;;3.37;2.30;;;27.10;53.20;;;;;;7399528;19;20429;-93
2022/07/04 09:28:46;;;;;;;2.97;1.87;;;27.30;52.40;;;;;;7400729;19;20388;-93
2022/07/04 09:31:19;;;;;;;4.07;1.87;;;27.50;52.60;;;;;;7400150;19;20408;-91
2022/07/04 09:33:57;;;;;;;2.53;1.63;;;28.00;51.90;;;;;;7400461;19;20384;-90
2022/07/04 09:36:28;;;;;;;2.40;1.30;;;28.50;50.60;;;;;;7400751;19;20438;-91
2022/07/04 09:39:14;;;;;;;3.10;1.77;;;28.90;49.30;;;;;;7401321;19;20479;-90
2022/07/04 09:42:00;;;;;;;2.57;1.80;;;29.10;49.50;;;;;;7390632;19;20404;-82
2022/07/04 09:44:45;;;;;;;4.37;2.10;;;29.80;48.60;;;;;;7385577;19;21364;-82
2022/07/04 09:47:24;;;;;;;3.13;1.50;;;30.10;47.00;;;;;;7386383;19;21133;-81
2022/07/04 09:50:04;;;;;;;4.20;1.90;;;30.60;46.10;;;;;;7386823;19;20508;-82
2022/07/04 09:52:34;;;;;;;2.10;1.60;;;31.00;45.90;;;;;;7388313;19;20488;-84
2022/07/04 09:55:05;;;;;;;4.20;2.27;;;;;;;;;;7365992;19;20432;-84
2022/07/04 09:57:47;;;;;;;2.97;1.60;;;32.00;43.50;;;;;;7374202;19;20419;-84
2022/07/04 10:00:25;;;;;;;3.83;2.37;;;32.20;42.40;;;;;;7378725;19;20438;-84
2022/07/04 10:02:55;;;;;;;5.00;2.10;;;32.30;42.10;;;;;;7378865;19;20412;-84
2022/07/04 10:05:27;;;;;;;2.73;1.60;;;32.90;41.90;;;;;;7373554;19;20428;-84
2022/07/04 10:07:58;;;;;;;4.30;2.10;;;33.40;40.40;;;;;;7376118;19;20420;-85
2022/07/04 10:10:34;;;;;;;3.70;2.00;;;33.60;39.00;;;;;;7373016;19;20396;-86
2022/07/04 10:13:08;;;;;;;2.37;2.17;;;33.90;39.20;;;;;;7379575;19;20427;-85
2022/07/04 10:15:41;;;;;;;3.27;1.63;;;34.30;38.60;;;;;;7378284;19;20403;-84
2022/07/04 10:18:14;;;;;;;4.40;3.73;;;35.00;38.10;;;;;;7379203;19;20422;-84
2022/07/04 10:20:45;;;;;;;2.87;2.07;;;35.50;37.10;;;;;;7375920;19;20853;-84
2022/07/04 10:23:15;;;;;;;3.80;2.30;;;36.60;35.10;;;;;;7378920;19;20399;-84
2022/07/04 10:25:44;;;;;;;4.70;2.40;;;37.40;34.10;;;;;;7376805;19;20940;-84
2022/07/04 10:28:17;;;;;;;4.70;1.73;;;37.90;33.10;;;;;;7373082;19;20510;-84
2022/07/04 10:30:51;;;;;;;7.43;4.07;;;37.20;32.70;;;;;;7377833;19;20416;-83
2022/07/04 10:33:25;;;;;;;5.37;4.53;;;35.40;35.90;;;;;;7383264;19;20408;-84
2022/07/04 10:35:56;;;;;;;4.30;3.70;;;36.60;33.90;;;;;;7414795;19;20406;-85
2022/07/04 10:38:30;;;;;;;7.43;6.10;;;37.40;33.10;;;;;;7415812;19;21522;-85
2022/07/04 10:41:02;;;;;;;2.90;2.60;;;38.40;31.40;;;;;;7413892;19;20395;-87
2022/07/04 10:44:06;;;;;;;4.20;3.40;;;37.90;31.70;;;;;;7417149;19;20762;-89
2022/07/04 10:46:40;;;;;;;3.97;3.63;;;38.80;31.30;;;;;;7419672;19;20396;-90
2022/07/04 10:49:20;;;;;;;5.07;3.50;;;39.40;30.60;;;;;;7418207;19;20407;-87
2022/07/04 10:51:53;;;;;;;3.63;2.27;;;39.90;30.10;;;;;;7414624;19;20395;-83
2022/07/04 10:54:24;;;;;;;7.40;2.70;;;40.50;29.30;;;;;;7394601;19;20409;-82
2022/07/04 10:56:57;;;;;;;5.53;2.97;;;40.50;28.50;;;;;;7379786;19;20446;-82
2022/07/04 10:59:31;;;;;;;5.43;2.80;;;39.30;29.90;;;;;;7385182;19;20412;-82
2022/07/04 11:02:26;;;;;;;3.20;2.00;;;39.30;30.70;;;;;;7394462;19;20501;-82
2022/07/04 11:05:00;;;;;;;3.97;2.00;;;38.80;30.10;;;;;;7397836;19;20389;-82
2022/07/04 11:08:05;;;;;;;2.97;2.10;;;38.00;31.40;;;;;;7402147;19;20715;-83
2022/07/04 11:10:36;;;;;;;2.47;1.73;;;37.80;32.10;;;;;;7406403;19;20903;-83
2022/07/04 11:13:25;;;;;;;2.97;1.97;;;37.60;32.50;;;;;;7404564;19;20440;-83
2022/07/04 11:16:07;;;;;;;4.00;2.00;;;37.50;32.70;;;;;;7388568;19;20412;-83
2022/07/04 11:18:47;;;;;;;1.83;1.40;;;37.00;32.60;;;;;;7384794;19;20419;-84
2022/07/04 11:21:26;;;;;;;1.73;1.30;;;36.70;33.70;;;;;;7382918;19;21091;-81
2022/07/04 11:23:58;;;;;;;4.17;2.20;;;36.30;34.00;;;;;;7382289;19;20420;-83
2022/07/04 11:26:28;;;;;;;3.10;2.70;;;35.80;34.90;;;;;;7382123;19;20404;-83
2022/07/04 11:28:58;;;;;;;2.10;1.90;;;34.80;36.40;;;;;;7380662;19;20408;-83
2022/07/04 11:31:46;;;;;;;4.63;1.90;;;34.80;35.90;;;;;;7381683;19;20423;-82
2022/07/04 11:34:16;;;;;;;3.07;1.70;;;34.60;36.50;;;;;;7380703;19;20372;-83
2022/07/04 11:36:47;;;;;;;3.10;1.83;;;35.00;36.20;;;;;;7378703;19;20456;-83
2022/07/04 11:39:21;;;;;;;3.30;2.33;;;35.50;35.50;;;;;;7374951;19;20440;-83
2022/07/04 11:47:26;;;;;;;2.23;1.67;;;36.10;34.50;;;;;;7377552;19;20743;-83
2022/07/04 11:49:57;;;;;;;3.73;1.60;;;35.70;34.50;;;;;;7379437;19;20916;-80
2022/07/04 11:52:28;;;;;;;2.70;1.70;;;35.70;35.40;;;;;;7381368;19;20445;-82
2022/07/04 11:54:57;;;;;;;3.70;1.87;;;35.80;35.20;;;;;;7377051;19;20441;-80
2022/07/04 11:57:29;;;;;;;6.00;2.20;;;35.90;34.50;;;;;;7380866;19;20421;-80
2022/07/04 12:00:02;;;;;;;2.20;1.60;;;36.10;34.30;;;;;;7380374;19;20828;-80
2022/07/04 12:02:37;;;;;;;2.23;1.60;;;36.30;34.60;;;;;;7379803;19;20396;-81
2022/07/04 12:05:09;;;;;;;3.20;1.50;;;36.40;34.40;;;;;;7378693;19;20472;-81
2022/07/04 12:07:40;;;;;;;2.20;1.90;;;36.40;34.20;;;;;;7380153;19;20432;-80
2022/07/04 12:10:15;;;;;;;2.20;1.50;;;36.50;33.50;;;;;;7377576;19;20909;-80
2022/07/04 12:12:57;;;;;;;3.00;1.67;;;36.20;34.40;;;;;;7380857;19;20422;-81
2022/07/04 12:15:28;;;;;;;2.47;1.47;;;36.30;34.20;;;;;;7375969;19;20922;-81
2022/07/04 12:18:00;;;;;;;2.87;1.63;;;35.30;35.10;;;;;;7378311;19;20443;-81
2022/07/04 12:20:30;;;;;;;2.97;1.90;;;35.00;35.20;;;;;;7375351;19;21260;-83
2022/07/04 12:23:03;;;;;;;3.23;1.83;;;34.60;35.90;;;;;;7376174;19;20419;-83
2022/07/04 12:25:38;;;;;;;2.73;1.80;;;34.80;36.40;;;;;;7378749;19;21087;-82
2022/07/04 12:28:09;;;;;;;1.77;1.60;;;34.90;35.90;;;;;;7380589;19;20388;-82
2022/07/04 12:30:40;;;;;;;2.27;2.00;;;35.10;35.80;;;;;;7377568;19;20451;-82
2022/07/04 12:33:12;;;;;;;4.07;1.87;;;34.80;35.50;;;;;;7379773;19;20406;-82
2022/07/04 12:35:49;;;;;;;1.73;1.57;;;34.00;37.10;;;;;;7377729;19;20408;-83
2022/07/04 12:38:21;;;;;;;1.67;1.53;;;34.20;37.20;;;;;;7378773;19;20407;-82
2022/07/04 12:40:59;;;;;;;5.63;1.90;;;34.20;37.10;;;;;;7376742;19;20400;-82
2022/07/04 12:43:46;;;;;;;1.80;1.70;;;34.20;37.30;;;;;;7377001;19;20408;-82
2022/07/04 12:46:30;;;;;;;4.87;1.47;;;34.80;36.30;;;;;;7377410;19;20386;-83
2022/07/04 12:49:03;;;;;;;1.50;1.40;;;35.10;35.60;;;;;;7376640;19;20372;-83
2022/07/04 12:51:37;;;;;;;1.63;1.40;;;35.30;35.70;;;;;;7376238;19;20409;-83
2022/07/04 12:54:11;;;;;;;2.47;1.70;;;35.60;35.00;;;;;;7373914;19;20408;-83
2022/07/04 12:56:42;;;;;;;2.77;1.60;;;36.00;33.90;;;;;;7374844;19;20414;-83
2022/07/04 12:59:16;;;;;;;2.33;1.47;;;36.40;33.50;;;;;;7377273;19;20932;-81
2022/07/04 13:01:46;;;;;;;1.80;1.50;;;35.90;33.70;;;;;;7376818;19;20408;-82
2022/07/04 13:04:18;;;;;;;2.10;1.90;;;35.50;35.10;;;;;;7377391;19;20447;-81
2022/07/04 13:06:50;;;;;;;3.03;1.60;;;34.60;35.10;;;;;;7378523;19;20939;-83
2022/07/04 13:09:22;;;;;;;2.00;1.70;;;33.50;36.80;;;;;;7375694;19;20447;-80
2022/07/04 13:14:35;;;;;;;1.77;1.40;;;32.40;39.20;;;;;;7374863;19;20408;-81
2022/07/04 13:17:07;;;;;;;7.67;1.70;;;32.20;39.30;;;;;;7342349;19;20408;-82
2022/07/04 13:19:39;;;;;;;9.83;2.17;;;31.90;39.80;;;;;;7373017;19;20484;-82
2022/07/04 13:22:08;;;;;;;60.73;9.90;;;31.30;41.10;;;;;;7374237;19;20408;-83
2022/07/04 13:24:40;;;;;;;16.13;4.53;;;31.60;40.60;;;;;;7378713;19;20442;-83
2022/07/04 13:27:12;;;;;;;4.93;1.90;;;31.40;40.60;;;;;;7375410;19;20836;-83
2022/07/04 13:29:42;;;;;;;11.60;3.40;;;31.20;41.80;;;;;;7375987;19;20400;-83
2022/07/04 13:32:11;;;;;;;2.30;1.60;;;31.20;42.00;;;;;;7375654;19;20394;-82
2022/07/04 13:34:43;;;;;;;3.43;1.60;;;31.30;42.10;;;;;;7376502;19;20449;-83